sensor_id;sensor_type;location;lat;lon;timestamp;P1;durP1;ratioP1;P2;durP2;ratioP2
61477;SDS011;47345;52.334;10.392;2023-01-04T00:00:11;5.40;;;2.60;;
61477;SDS011;47345;52.334;10.392;2023-01-04T00:02:43;3.20;;;2.80;;
61477;SDS011;47345;52.334;10.392;2023-01-04T00:05:14;3.10;;;2.30;;
61477;SDS011;47345;52.334;10.392;2023-01-04T00:07:44;5.00;;;2.40;;
61477;SDS011;47345;52.334;10.392;2023-01-04T00:10:15;2.40;;;2.20;;
61477;SDS011;47345;52.334;10.392;2023-01-04T00:12:46;4.40;;;2.50;;
61477;SDS011;47345;52.334;10.392;2023-01-04T00:15:17;2.40;;;2.10;;
61477;SDS011;47345;52.334;10.392;2023-01-04T00:17:48;2.80;;;2.30;;
61477;SDS011;47345;52.334;10.392;2023-01-04T00:20:18;3.80;;;2.30;;
61477;SDS011;47345;52.334;10.392;2023-01-04T00:22:49;3.30;;;2.20;;
61477;SDS011;47345;52.334;10.392;2023-01-04T00:25:20;2.80;;;2.30;;
61477;SDS011;47345;52.334;10.392;2023-01-04T00:27:51;5.90;;;2.60;;
61477;SDS011;47345;52.334;10.392;2023-01-04T00:30:22;3.40;;;2.40;;
61477;SDS011;47345;52.334;10.392;2023-01-04T00:32:53;3.00;;;2.40;;
61477;SDS011;47345;52.334;10.392;2023-01-04T00:35:24;2.70;;;2.30;;
61477;SDS011;47345;52.334;10.392;2023-01-04T00:38:12;3.00;;;2.30;;
61477;SDS011;47345;52.334;10.392;2023-01-04T00:40:43;3.90;;;2.20;;
61477;SDS011;47345;52.334;10.392;2023-01-04T00:43:13;2.30;;;2.10;;
61477;SDS011;47345;52.334;10.392;2023-01-04T00:45:44;3.60;;;2.50;;
61477;SDS011;47345;52.334;10.392;2023-01-04T00:48:14;2.80;;;2.10;;
61477;SDS011;47345;52.334;10.392;2023-01-04T00:50:45;4.70;;;2.40;;
61477;SDS011;47345;52.334;10.392;2023-01-04T00:53:16;2.70;;;1.90;;
61477;SDS011;47345;52.334;10.392;2023-01-04T00:55:47;3.60;;;2.60;;
61477;SDS011;47345;52.334;10.392;2023-01-04T00:58:17;3.60;;;2.30;;
61477;SDS011;47345;52.334;10.392;2023-01-04T01:00:48;4.80;;;2.60;;
61477;SDS011;47345;52.334;10.392;2023-01-04T01:03:19;2.20;;;1.90;;
61477;SDS011;47345;52.334;10.392;2023-01-04T01:05:50;2.30;;;2.00;;
61477;SDS011;47345;52.334;10.392;2023-01-04T01:08:20;2.80;;;2.00;;
61477;SDS011;47345;52.334;10.392;2023-01-04T01:10:53;3.50;;;2.10;;
61477;SDS011;47345;52.334;10.392;2023-01-04T01:13:29;3.20;;;2.40;;
61477;SDS011;47345;52.334;10.392;2023-01-04T01:16:02;2.80;;;2.30;;
61477;SDS011;47345;52.334;10.392;2023-01-04T01:18:35;3.50;;;2.20;;
61477;SDS011;47345;52.334;10.392;2023-01-04T01:21:07;2.70;;;2.20;;
61477;SDS011;47345;52.334;10.392;2023-01-04T01:23:40;2.30;;;2.10;;
61477;SDS011;47345;52.334;10.392;2023-01-04T01:26:12;2.00;;;1.80;;
61477;SDS011;47345;52.334;10.392;2023-01-04T01:28:48;5.10;;;2.70;;
61477;SDS011;47345;52.334;10.392;2023-01-04T01:31:20;4.20;;;2.10;;
61477;SDS011;47345;52.334;10.392;2023-01-04T01:33:52;2.10;;;1.90;;
61477;SDS011;47345;52.334;10.392;2023-01-04T01:36:25;2.80;;;2.20;;
61477;SDS011;47345;52.334;10.392;2023-01-04T01:38:55;2.10;;;1.90;;
61477;SDS011;47345;52.334;10.392;2023-01-04T01:41:27;3.10;;;2.20;;
61477;SDS011;47345;52.334;10.392;2023-01-04T01:44:00;2.50;;;2.00;;
61477;SDS011;47345;52.334;10.392;2023-01-04T01:46:33;3.20;;;2.10;;
61477;SDS011;47345;52.334;10.392;2023-01-04T01:49:08;2.50;;;2.00;;
61477;SDS011;47345;52.334;10.392;2023-01-04T01:51:42;4.40;;;2.40;;
61477;SDS011;47345;52.334;10.392;2023-01-04T01:54:13;1.90;;;1.70;;
61477;SDS011;47345;52.334;10.392;2023-01-04T01:56:48;4.00;;;2.10;;
61477;SDS011;47345;52.334;10.392;2023-01-04T01:59:21;2.70;;;2.30;;
61477;SDS011;47345;52.334;10.392;2023-01-04T02:01:52;3.50;;;2.20;;
61477;SDS011;47345;52.334;10.392;2023-01-04T02:04:24;4.30;;;2.10;;
61477;SDS011;47345;52.334;10.392;2023-01-04T02:06:56;3.90;;;2.30;;
61477;SDS011;47345;52.334;10.392;2023-01-04T02:09:29;3.00;;;2.30;;
61477;SDS011;47345;52.334;10.392;2023-01-04T02:12:00;2.70;;;2.30;;
61477;SDS011;47345;52.334;10.392;2023-01-04T02:14:31;2.40;;;2.00;;
61477;SDS011;47345;52.334;10.392;2023-01-04T02:17:05;3.40;;;2.20;;
61477;SDS011;47345;52.334;10.392;2023-01-04T02:22:47;3.50;;;2.20;;
61477;SDS011;47345;52.334;10.392;2023-01-04T02:25:52;2.70;;;1.90;;
61477;SDS011;47345;52.334;10.392;2023-01-04T02:28:58;2.20;;;2.00;;
61477;SDS011;47345;52.334;10.392;2023-01-04T02:31:46;2.70;;;2.20;;
61477;SDS011;47345;52.334;10.392;2023-01-04T02:34:23;4.60;;;2.40;;
61477;SDS011;47345;52.334;10.392;2023-01-04T02:37:03;2.60;;;2.30;;
61477;SDS011;47345;52.334;10.392;2023-01-04T02:39:46;6.10;;;2.60;;
61477;SDS011;47345;52.334;10.392;2023-01-04T02:42:34;3.50;;;2.40;;
61477;SDS011;47345;52.334;10.392;2023-01-04T02:45:30;2.10;;;1.90;;
61477;SDS011;47345;52.334;10.392;2023-01-04T02:48:04;2.50;;;2.20;;
61477;SDS011;47345;52.334;10.392;2023-01-04T02:50:54;2.80;;;2.30;;
61477;SDS011;47345;52.334;10.392;2023-01-04T02:53:26;2.30;;;2.10;;
61477;SDS011;47345;52.334;10.392;2023-01-04T02:56:02;7.90;;;2.90;;
61477;SDS011;47345;52.334;10.392;2023-01-04T02:58:46;4.50;;;2.40;;
61477;SDS011;47345;52.334;10.392;2023-01-04T03:01:34;2.80;;;2.10;;
61477;SDS011;47345;52.334;10.392;2023-01-04T03:04:36;3.10;;;2.40;;
61477;SDS011;47345;52.334;10.392;2023-01-04T03:07:38;4.30;;;2.30;;
61477;SDS011;47345;52.334;10.392;2023-01-04T03:10:21;2.70;;;2.20;;
61477;SDS011;47345;52.334;10.392;2023-01-04T03:13:02;3.00;;;2.20;;
61477;SDS011;47345;52.334;10.392;2023-01-04T03:15:38;2.10;;;1.90;;
61477;SDS011;47345;52.334;10.392;2023-01-04T03:18:14;2.90;;;2.30;;
61477;SDS011;47345;52.334;10.392;2023-01-04T03:20:49;1.90;;;1.80;;
61477;SDS011;47345;52.334;10.392;2023-01-04T03:23:24;2.90;;;2.30;;
61477;SDS011;47345;52.334;10.392;2023-01-04T03:26:17;3.60;;;2.10;;
61477;SDS011;47345;52.334;10.392;2023-01-04T03:29:11;2.70;;;2.30;;
61477;SDS011;47345;52.334;10.392;2023-01-04T03:32:03;3.20;;;2.40;;
61477;SDS011;47345;52.334;10.392;2023-01-04T03:34:56;2.70;;;2.10;;
61477;SDS011;47345;52.334;10.392;2023-01-04T03:37:46;2.90;;;2.30;;
61477;SDS011;47345;52.334;10.392;2023-01-04T03:40:42;2.50;;;2.20;;
61477;SDS011;47345;52.334;10.392;2023-01-04T03:43:37;2.00;;;1.90;;
61477;SDS011;47345;52.334;10.392;2023-01-04T03:46:32;5.80;;;2.50;;
61477;SDS011;47345;52.334;10.392;2023-01-04T03:49:28;3.10;;;2.30;;
61477;SDS011;47345;52.334;10.392;2023-01-04T03:52:04;4.30;;;2.20;;
61477;SDS011;47345;52.334;10.392;2023-01-04T03:54:38;2.40;;;1.80;;
61477;SDS011;47345;52.334;10.392;2023-01-04T03:57:11;4.70;;;2.10;;
61477;SDS011;47345;52.334;10.392;2023-01-04T03:59:44;4.40;;;2.20;;
61477;SDS011;47345;52.334;10.392;2023-01-04T04:02:21;5.10;;;2.20;;
61477;SDS011;47345;52.334;10.392;2023-01-04T04:04:52;2.00;;;1.80;;
61477;SDS011;47345;52.334;10.392;2023-01-04T04:07:41;4.80;;;2.20;;
61477;SDS011;47345;52.334;10.392;2023-01-04T04:10:29;2.10;;;1.80;;
61477;SDS011;47345;52.334;10.392;2023-01-04T04:13:00;3.20;;;2.10;;
61477;SDS011;47345;52.334;10.392;2023-01-04T04:15:30;2.50;;;2.00;;
61477;SDS011;47345;52.334;10.392;2023-01-04T04:18:01;3.00;;;2.00;;
61477;SDS011;47345;52.334;10.392;2023-01-04T04:20:31;3.80;;;1.90;;
61477;SDS011;47345;52.334;10.392;2023-01-04T04:23:02;3.50;;;2.20;;
61477;SDS011;47345;52.334;10.392;2023-01-04T04:25:33;3.30;;;2.30;;
61477;SDS011;47345;52.334;10.392;2023-01-04T04:28:04;2.90;;;1.80;;
61477;SDS011;47345;52.334;10.392;2023-01-04T04:30:34;3.20;;;2.00;;
61477;SDS011;47345;52.334;10.392;2023-01-04T04:33:07;2.20;;;1.70;;
61477;SDS011;47345;52.334;10.392;2023-01-04T04:35:39;2.30;;;2.10;;
61477;SDS011;47345;52.334;10.392;2023-01-04T04:38:09;2.80;;;1.90;;
61477;SDS011;47345;52.334;10.392;2023-01-04T04:40:40;2.20;;;1.90;;
61477;SDS011;47345;52.334;10.392;2023-01-04T04:45:56;2.90;;;2.00;;
61477;SDS011;47345;52.334;10.392;2023-01-04T04:48:27;2.80;;;2.00;;
61477;SDS011;47345;52.334;10.392;2023-01-04T04:50:58;2.80;;;2.00;;
61477;SDS011;47345;52.334;10.392;2023-01-04T04:53:28;3.10;;;2.10;;
61477;SDS011;47345;52.334;10.392;2023-01-04T04:55:59;3.10;;;1.90;;
61477;SDS011;47345;52.334;10.392;2023-01-04T04:58:30;2.70;;;2.00;;
61477;SDS011;47345;52.334;10.392;2023-01-04T05:01:00;4.60;;;2.20;;
61477;SDS011;47345;52.334;10.392;2023-01-04T05:03:31;1.80;;;1.70;;
61477;SDS011;47345;52.334;10.392;2023-01-04T05:06:02;1.80;;;1.70;;
61477;SDS011;47345;52.334;10.392;2023-01-04T05:08:33;2.30;;;2.10;;
61477;SDS011;47345;52.334;10.392;2023-01-04T05:11:05;4.20;;;2.00;;
61477;SDS011;47345;52.334;10.392;2023-01-04T05:13:37;2.40;;;2.00;;
61477;SDS011;47345;52.334;10.392;2023-01-04T05:16:08;2.60;;;1.90;;
61477;SDS011;47345;52.334;10.392;2023-01-04T05:18:38;7.20;;;2.30;;
61477;SDS011;47345;52.334;10.392;2023-01-04T05:21:09;2.80;;;2.10;;
61477;SDS011;47345;52.334;10.392;2023-01-04T05:23:47;3.10;;;2.60;;
61477;SDS011;47345;52.334;10.392;2023-01-04T05:26:17;1.80;;;1.70;;
61477;SDS011;47345;52.334;10.392;2023-01-04T05:28:48;2.70;;;1.90;;
61477;SDS011;47345;52.334;10.392;2023-01-04T05:31:21;2.30;;;1.90;;
61477;SDS011;47345;52.334;10.392;2023-01-04T05:33:52;2.10;;;1.80;;
61477;SDS011;47345;52.334;10.392;2023-01-04T05:36:22;3.20;;;2.30;;
61477;SDS011;47345;52.334;10.392;2023-01-04T05:38:52;1.80;;;1.70;;
61477;SDS011;47345;52.334;10.392;2023-01-04T05:41:23;3.40;;;1.80;;
61477;SDS011;47345;52.334;10.392;2023-01-04T05:46:39;2.30;;;1.90;;
61477;SDS011;47345;52.334;10.392;2023-01-04T05:49:10;2.90;;;2.10;;
61477;SDS011;47345;52.334;10.392;2023-01-04T05:51:40;4.10;;;2.30;;
61477;SDS011;47345;52.334;10.392;2023-01-04T05:54:11;3.40;;;2.20;;
61477;SDS011;47345;52.334;10.392;2023-01-04T05:56:48;2.30;;;2.00;;
61477;SDS011;47345;52.334;10.392;2023-01-04T05:59:18;5.70;;;2.80;;
61477;SDS011;47345;52.334;10.392;2023-01-04T06:01:49;2.70;;;2.40;;
61477;SDS011;47345;52.334;10.392;2023-01-04T06:04:19;2.40;;;1.80;;
61477;SDS011;47345;52.334;10.392;2023-01-04T06:06:50;2.60;;;2.30;;
61477;SDS011;47345;52.334;10.392;2023-01-04T06:09:20;2.80;;;2.00;;
61477;SDS011;47345;52.334;10.392;2023-01-04T06:11:53;3.10;;;2.30;;
61477;SDS011;47345;52.334;10.392;2023-01-04T06:14:24;2.20;;;2.00;;
61477;SDS011;47345;52.334;10.392;2023-01-04T06:16:55;2.40;;;2.00;;
61477;SDS011;47345;52.334;10.392;2023-01-04T06:19:26;3.90;;;2.20;;
61477;SDS011;47345;52.334;10.392;2023-01-04T06:21:56;2.70;;;2.30;;
61477;SDS011;47345;52.334;10.392;2023-01-04T06:24:27;2.20;;;2.00;;
61477;SDS011;47345;52.334;10.392;2023-01-04T06:26:58;3.20;;;2.20;;
61477;SDS011;47345;52.334;10.392;2023-01-04T06:29:28;2.90;;;2.00;;
61477;SDS011;47345;52.334;10.392;2023-01-04T06:31:58;3.60;;;2.30;;
61477;SDS011;47345;52.334;10.392;2023-01-04T06:34:29;2.80;;;1.80;;
61477;SDS011;47345;52.334;10.392;2023-01-04T06:36:59;2.20;;;2.00;;
61477;SDS011;47345;52.334;10.392;2023-01-04T06:39:30;6.40;;;2.30;;
61477;SDS011;47345;52.334;10.392;2023-01-04T06:42:00;2.40;;;2.20;;
61477;SDS011;47345;52.334;10.392;2023-01-04T06:44:34;2.20;;;2.00;;
61477;SDS011;47345;52.334;10.392;2023-01-04T06:47:04;2.50;;;2.20;;
61477;SDS011;47345;52.334;10.392;2023-01-04T06:49:34;5.10;;;2.10;;
61477;SDS011;47345;52.334;10.392;2023-01-04T06:52:05;4.80;;;2.30;;
61477;SDS011;47345;52.334;10.392;2023-01-04T06:54:36;2.50;;;2.30;;
61477;SDS011;47345;52.334;10.392;2023-01-04T06:57:06;3.50;;;2.30;;
61477;SDS011;47345;52.334;10.392;2023-01-04T06:59:37;4.70;;;2.60;;
61477;SDS011;47345;52.334;10.392;2023-01-04T07:02:08;4.30;;;2.50;;
61477;SDS011;47345;52.334;10.392;2023-01-04T07:04:41;3.40;;;2.20;;
61477;SDS011;47345;52.334;10.392;2023-01-04T07:07:12;3.20;;;2.20;;
61477;SDS011;47345;52.334;10.392;2023-01-04T07:09:43;2.40;;;2.00;;
61477;SDS011;47345;52.334;10.392;2023-01-04T07:12:13;3.50;;;2.10;;
61477;SDS011;47345;52.334;10.392;2023-01-04T07:14:43;2.90;;;2.30;;
61477;SDS011;47345;52.334;10.392;2023-01-04T07:17:14;2.50;;;2.20;;
61477;SDS011;47345;52.334;10.392;2023-01-04T07:19:44;2.40;;;2.20;;
61477;SDS011;47345;52.334;10.392;2023-01-04T07:22:15;3.30;;;2.40;;
61477;SDS011;47345;52.334;10.392;2023-01-04T07:24:45;2.70;;;2.10;;
61477;SDS011;47345;52.334;10.392;2023-01-04T07:27:16;4.80;;;2.20;;
61477;SDS011;47345;52.334;10.392;2023-01-04T07:29:47;2.30;;;2.10;;
61477;SDS011;47345;52.334;10.392;2023-01-04T07:32:17;2.30;;;2.10;;
61477;SDS011;47345;52.334;10.392;2023-01-04T07:34:48;2.40;;;2.20;;
61477;SDS011;47345;52.334;10.392;2023-01-04T07:37:19;2.80;;;2.00;;
61477;SDS011;47345;52.334;10.392;2023-01-04T07:39:49;3.10;;;2.30;;
61477;SDS011;47345;52.334;10.392;2023-01-04T07:42:20;2.20;;;1.90;;
61477;SDS011;47345;52.334;10.392;2023-01-04T07:44:50;3.10;;;2.40;;
61477;SDS011;47345;52.334;10.392;2023-01-04T07:47:20;4.70;;;2.40;;
61477;SDS011;47345;52.334;10.392;2023-01-04T07:49:51;2.30;;;2.00;;
61477;SDS011;47345;52.334;10.392;2023-01-04T07:52:22;2.30;;;2.00;;
61477;SDS011;47345;52.334;10.392;2023-01-04T07:54:52;2.40;;;2.10;;
61477;SDS011;47345;52.334;10.392;2023-01-04T07:57:23;2.40;;;2.10;;
61477;SDS011;47345;52.334;10.392;2023-01-04T07:59:53;1.90;;;1.80;;
61477;SDS011;47345;52.334;10.392;2023-01-04T08:02:23;2.90;;;1.90;;
61477;SDS011;47345;52.334;10.392;2023-01-04T08:04:55;2.00;;;1.80;;
61477;SDS011;47345;52.334;10.392;2023-01-04T08:07:26;2.80;;;2.10;;
61477;SDS011;47345;52.334;10.392;2023-01-04T08:09:57;2.80;;;1.90;;
61477;SDS011;47345;52.334;10.392;2023-01-04T08:12:28;2.10;;;1.90;;
61477;SDS011;47345;52.334;10.392;2023-01-04T08:14:58;4.50;;;2.30;;
61477;SDS011;47345;52.334;10.392;2023-01-04T08:17:29;2.70;;;2.20;;
61477;SDS011;47345;52.334;10.392;2023-01-04T08:19:59;3.00;;;2.10;;
61477;SDS011;47345;52.334;10.392;2023-01-04T08:22:30;2.00;;;1.70;;
61477;SDS011;47345;52.334;10.392;2023-01-04T08:25:01;2.30;;;1.80;;
61477;SDS011;47345;52.334;10.392;2023-01-04T08:27:33;2.50;;;2.00;;
61477;SDS011;47345;52.334;10.392;2023-01-04T08:30:04;1.90;;;1.60;;
61477;SDS011;47345;52.334;10.392;2023-01-04T08:32:37;3.50;;;1.70;;
61477;SDS011;47345;52.334;10.392;2023-01-04T08:35:08;3.90;;;1.90;;
61477;SDS011;47345;52.334;10.392;2023-01-04T08:37:39;2.80;;;2.10;;
61477;SDS011;47345;52.334;10.392;2023-01-04T08:40:10;1.90;;;1.80;;
61477;SDS011;47345;52.334;10.392;2023-01-04T08:42:41;2.60;;;1.90;;
61477;SDS011;47345;52.334;10.392;2023-01-04T08:45:12;2.40;;;1.90;;
61477;SDS011;47345;52.334;10.392;2023-01-04T08:47:44;2.40;;;1.70;;
61477;SDS011;47345;52.334;10.392;2023-01-04T08:50:15;2.40;;;2.00;;
61477;SDS011;47345;52.334;10.392;2023-01-04T08:52:47;2.50;;;2.10;;
61477;SDS011;47345;52.334;10.392;2023-01-04T08:55:17;1.80;;;1.70;;
61477;SDS011;47345;52.334;10.392;2023-01-04T08:57:50;2.30;;;1.70;;
61477;SDS011;47345;52.334;10.392;2023-01-04T09:00:21;1.90;;;1.70;;
61477;SDS011;47345;52.334;10.392;2023-01-04T09:02:52;3.50;;;1.70;;
61477;SDS011;47345;52.334;10.392;2023-01-04T09:05:23;2.60;;;1.90;;
61477;SDS011;47345;52.334;10.392;2023-01-04T09:07:55;2.10;;;1.50;;
61477;SDS011;47345;52.334;10.392;2023-01-04T09:10:27;2.60;;;1.80;;
61477;SDS011;47345;52.334;10.392;2023-01-04T09:12:57;2.00;;;1.70;;
61477;SDS011;47345;52.334;10.392;2023-01-04T09:15:28;2.20;;;1.60;;
61477;SDS011;47345;52.334;10.392;2023-01-04T09:17:59;2.30;;;1.80;;
61477;SDS011;47345;52.334;10.392;2023-01-04T09:20:51;2.00;;;1.70;;
61477;SDS011;47345;52.334;10.392;2023-01-04T09:23:22;2.70;;;1.80;;
61477;SDS011;47345;52.334;10.392;2023-01-04T09:25:55;2.80;;;2.10;;
61477;SDS011;47345;52.334;10.392;2023-01-04T09:28:32;2.40;;;1.70;;
61477;SDS011;47345;52.334;10.392;2023-01-04T09:31:05;2.30;;;2.00;;
61477;SDS011;47345;52.334;10.392;2023-01-04T09:33:37;2.40;;;1.90;;
61477;SDS011;47345;52.334;10.392;2023-01-04T09:36:27;2.60;;;1.70;;
61477;SDS011;47345;52.334;10.392;2023-01-04T09:38:58;2.10;;;1.90;;
61477;SDS011;47345;52.334;10.392;2023-01-04T09:41:29;3.00;;;2.10;;
61477;SDS011;47345;52.334;10.392;2023-01-04T09:44:03;1.70;;;1.60;;
61477;SDS011;47345;52.334;10.392;2023-01-04T09:46:45;1.60;;;1.50;;
61477;SDS011;47345;52.334;10.392;2023-01-04T09:49:20;2.50;;;2.00;;
61477;SDS011;47345;52.334;10.392;2023-01-04T09:51:58;4.20;;;1.90;;
61477;SDS011;47345;52.334;10.392;2023-01-04T09:54:34;3.70;;;1.60;;
61477;SDS011;47345;52.334;10.392;2023-01-04T09:57:15;1.80;;;1.70;;
61477;SDS011;47345;52.334;10.392;2023-01-04T09:59:52;1.80;;;1.70;;
61477;SDS011;47345;52.334;10.392;2023-01-04T10:02:28;2.20;;;1.80;;
61477;SDS011;47345;52.334;10.392;2023-01-04T10:05:07;1.60;;;1.50;;
61477;SDS011;47345;52.334;10.392;2023-01-04T10:07:45;1.70;;;1.60;;
61477;SDS011;47345;52.334;10.392;2023-01-04T10:10:16;1.50;;;1.30;;
61477;SDS011;47345;52.334;10.392;2023-01-04T10:12:50;1.70;;;1.60;;
61477;SDS011;47345;52.334;10.392;2023-01-04T10:15:31;1.50;;;1.40;;
61477;SDS011;47345;52.334;10.392;2023-01-04T10:18:15;4.40;;;1.60;;
61477;SDS011;47345;52.334;10.392;2023-01-04T10:21:17;1.60;;;1.50;;
61477;SDS011;47345;52.334;10.392;2023-01-04T10:24:05;1.60;;;1.50;;
61477;SDS011;47345;52.334;10.392;2023-01-04T10:26:45;1.70;;;1.60;;
61477;SDS011;47345;52.334;10.392;2023-01-04T10:29:22;1.70;;;1.60;;
61477;SDS011;47345;52.334;10.392;2023-01-04T10:32:04;1.60;;;1.50;;
61477;SDS011;47345;52.334;10.392;2023-01-04T10:34:44;1.60;;;1.50;;
61477;SDS011;47345;52.334;10.392;2023-01-04T10:37:16;1.70;;;1.60;;
61477;SDS011;47345;52.334;10.392;2023-01-04T10:39:51;1.70;;;1.60;;
61477;SDS011;47345;52.334;10.392;2023-01-04T10:42:24;1.80;;;1.60;;
61477;SDS011;47345;52.334;10.392;2023-01-04T10:45:07;1.60;;;1.50;;
61477;SDS011;47345;52.334;10.392;2023-01-04T10:47:45;1.60;;;1.50;;
61477;SDS011;47345;52.334;10.392;2023-01-04T10:50:26;1.70;;;1.60;;
61477;SDS011;47345;52.334;10.392;2023-01-04T10:53:09;1.60;;;1.50;;
61477;SDS011;47345;52.334;10.392;2023-01-04T10:55:44;1.60;;;1.50;;
61477;SDS011;47345;52.334;10.392;2023-01-04T10:58:42;1.50;;;1.40;;
61477;SDS011;47345;52.334;10.392;2023-01-04T11:01:21;1.40;;;1.30;;
61477;SDS011;47345;52.334;10.392;2023-01-04T11:03:57;1.50;;;1.40;;
61477;SDS011;47345;52.334;10.392;2023-01-04T11:06:39;1.50;;;1.40;;
61477;SDS011;47345;52.334;10.392;2023-01-04T11:11:54;1.40;;;1.30;;
61477;SDS011;47345;52.334;10.392;2023-01-04T11:14:25;1.50;;;1.30;;
61477;SDS011;47345;52.334;10.392;2023-01-04T11:17:04;1.40;;;1.30;;
61477;SDS011;47345;52.334;10.392;2023-01-04T11:19:38;1.40;;;1.30;;
61477;SDS011;47345;52.334;10.392;2023-01-04T11:22:13;2.90;;;1.50;;
61477;SDS011;47345;52.334;10.392;2023-01-04T11:27:41;2.70;;;1.10;;
61477;SDS011;47345;52.334;10.392;2023-01-04T11:30:16;1.30;;;1.30;;
61477;SDS011;47345;52.334;10.392;2023-01-04T11:32:51;1.40;;;1.30;;
61477;SDS011;47345;52.334;10.392;2023-01-04T11:38:10;2.20;;;1.60;;
61477;SDS011;47345;52.334;10.392;2023-01-04T11:40:54;1.70;;;1.30;;
61477;SDS011;47345;52.334;10.392;2023-01-04T11:43:27;1.70;;;1.50;;
61477;SDS011;47345;52.334;10.392;2023-01-04T11:45:59;2.20;;;2.00;;
61477;SDS011;47345;52.334;10.392;2023-01-04T11:48:34;15.00;;;7.00;;
61477;SDS011;47345;52.334;10.392;2023-01-04T11:51:16;1.90;;;1.50;;
61477;SDS011;47345;52.334;10.392;2023-01-04T11:54:01;1.80;;;1.70;;
61477;SDS011;47345;52.334;10.392;2023-01-04T11:56:33;1.80;;;1.60;;
61477;SDS011;47345;52.334;10.392;2023-01-04T11:59:08;2.10;;;1.60;;
61477;SDS011;47345;52.334;10.392;2023-01-04T12:01:51;1.50;;;1.30;;
61477;SDS011;47345;52.334;10.392;2023-01-04T12:05:11;1.90;;;1.70;;
61477;SDS011;47345;52.334;10.392;2023-01-04T12:07:55;2.20;;;1.70;;
61477;SDS011;47345;52.334;10.392;2023-01-04T12:10:26;1.50;;;1.40;;
61477;SDS011;47345;52.334;10.392;2023-01-04T12:12:58;1.50;;;1.40;;
61477;SDS011;47345;52.334;10.392;2023-01-04T12:15:32;1.90;;;1.50;;
61477;SDS011;47345;52.334;10.392;2023-01-04T12:18:08;1.10;;;1.10;;
61477;SDS011;47345;52.334;10.392;2023-01-04T12:20:44;1.50;;;1.40;;
61477;SDS011;47345;52.334;10.392;2023-01-04T12:23:15;1.40;;;1.30;;
61477;SDS011;47345;52.334;10.392;2023-01-04T12:25:47;1.50;;;1.40;;
61477;SDS011;47345;52.334;10.392;2023-01-04T12:28:30;1.60;;;1.40;;
61477;SDS011;47345;52.334;10.392;2023-01-04T12:37:10;1.30;;;1.30;;
61477;SDS011;47345;52.334;10.392;2023-01-04T12:43:24;1.10;;;1.00;;
61477;SDS011;47345;52.334;10.392;2023-01-04T12:49:44;1.40;;;1.30;;
61477;SDS011;47345;52.334;10.392;2023-01-04T12:52:37;1.00;;;1.00;;
61477;SDS011;47345;52.334;10.392;2023-01-04T12:58:41;0.90;;;0.90;;
61477;SDS011;47345;52.334;10.392;2023-01-04T13:02:11;0.90;;;0.90;;
61477;SDS011;47345;52.334;10.392;2023-01-04T13:04:49;1.00;;;1.00;;
61477;SDS011;47345;52.334;10.392;2023-01-04T13:07:41;0.80;;;0.80;;
61477;SDS011;47345;52.334;10.392;2023-01-04T13:10:26;0.80;;;0.80;;
61477;SDS011;47345;52.334;10.392;2023-01-04T13:13:16;1.30;;;1.20;;
61477;SDS011;47345;52.334;10.392;2023-01-04T13:15:57;2.80;;;1.90;;
61477;SDS011;47345;52.334;10.392;2023-01-04T13:18:35;0.90;;;0.90;;
61477;SDS011;47345;52.334;10.392;2023-01-04T13:21:12;1.00;;;1.00;;
61477;SDS011;47345;52.334;10.392;2023-01-04T13:23:48;0.90;;;0.90;;
61477;SDS011;47345;52.334;10.392;2023-01-04T13:26:27;2.10;;;1.00;;
61477;SDS011;47345;52.334;10.392;2023-01-04T13:29:12;1.00;;;1.00;;
61477;SDS011;47345;52.334;10.392;2023-01-04T13:31:47;0.90;;;0.90;;
61477;SDS011;47345;52.334;10.392;2023-01-04T13:34:29;1.00;;;1.00;;
61477;SDS011;47345;52.334;10.392;2023-01-04T13:37:05;0.90;;;0.90;;
61477;SDS011;47345;52.334;10.392;2023-01-04T13:39:41;0.90;;;0.90;;
61477;SDS011;47345;52.334;10.392;2023-01-04T13:42:15;0.90;;;0.90;;
61477;SDS011;47345;52.334;10.392;2023-01-04T13:44:57;1.10;;;1.10;;
61477;SDS011;47345;52.334;10.392;2023-01-04T13:47:49;0.90;;;0.90;;
61477;SDS011;47345;52.334;10.392;2023-01-04T13:50:33;0.70;;;0.70;;
61477;SDS011;47345;52.334;10.392;2023-01-04T13:53:15;1.00;;;1.00;;
61477;SDS011;47345;52.334;10.392;2023-01-04T13:55:52;0.90;;;0.90;;
61477;SDS011;47345;52.334;10.392;2023-01-04T13:58:24;1.00;;;1.00;;
61477;SDS011;47345;52.334;10.392;2023-01-04T14:00:56;0.80;;;0.80;;
61477;SDS011;47345;52.334;10.392;2023-01-04T14:03:30;1.00;;;1.00;;
61477;SDS011;47345;52.334;10.392;2023-01-04T14:06:14;0.70;;;0.70;;
61477;SDS011;47345;52.334;10.392;2023-01-04T14:08:51;0.90;;;0.90;;
61477;SDS011;47345;52.334;10.392;2023-01-04T14:11:26;0.90;;;0.90;;
61477;SDS011;47345;52.334;10.392;2023-01-04T14:14:28;0.90;;;0.90;;
61477;SDS011;47345;52.334;10.392;2023-01-04T14:17:11;1.00;;;1.00;;
61477;SDS011;47345;52.334;10.392;2023-01-04T14:19:46;0.80;;;0.80;;
61477;SDS011;47345;52.334;10.392;2023-01-04T14:22:21;0.80;;;0.80;;
61477;SDS011;47345;52.334;10.392;2023-01-04T14:24:54;0.70;;;0.70;;
61477;SDS011;47345;52.334;10.392;2023-01-04T14:27:41;0.90;;;0.90;;
61477;SDS011;47345;52.334;10.392;2023-01-04T14:30:22;0.70;;;0.70;;
61477;SDS011;47345;52.334;10.392;2023-01-04T14:32:54;1.00;;;1.00;;
61477;SDS011;47345;52.334;10.392;2023-01-04T14:35:27;0.80;;;0.80;;
61477;SDS011;47345;52.334;10.392;2023-01-04T14:38:02;0.90;;;0.90;;
61477;SDS011;47345;52.334;10.392;2023-01-04T14:40:39;0.70;;;0.70;;
61477;SDS011;47345;52.334;10.392;2023-01-04T14:46:14;0.90;;;0.90;;
61477;SDS011;47345;52.334;10.392;2023-01-04T14:48:45;0.80;;;0.80;;
61477;SDS011;47345;52.334;10.392;2023-01-04T14:51:16;1.00;;;1.00;;
61477;SDS011;47345;52.334;10.392;2023-01-04T14:53:49;0.90;;;0.90;;
61477;SDS011;47345;52.334;10.392;2023-01-04T14:56:21;0.80;;;0.80;;
61477;SDS011;47345;52.334;10.392;2023-01-04T14:58:51;0.80;;;0.80;;
61477;SDS011;47345;52.334;10.392;2023-01-04T15:01:22;1.60;;;1.00;;
61477;SDS011;47345;52.334;10.392;2023-01-04T15:03:53;0.60;;;0.60;;
61477;SDS011;47345;52.334;10.392;2023-01-04T15:06:23;0.90;;;0.90;;
61477;SDS011;47345;52.334;10.392;2023-01-04T15:08:54;0.90;;;0.90;;
61477;SDS011;47345;52.334;10.392;2023-01-04T15:11:24;0.90;;;0.90;;
61477;SDS011;47345;52.334;10.392;2023-01-04T15:13:56;0.90;;;0.80;;
61477;SDS011;47345;52.334;10.392;2023-01-04T15:16:26;0.90;;;0.90;;
61477;SDS011;47345;52.334;10.392;2023-01-04T15:18:57;0.80;;;0.80;;
61477;SDS011;47345;52.334;10.392;2023-01-04T15:21:27;0.90;;;0.90;;
61477;SDS011;47345;52.334;10.392;2023-01-04T15:24:05;0.90;;;0.90;;
61477;SDS011;47345;52.334;10.392;2023-01-04T15:26:36;1.00;;;1.00;;
61477;SDS011;47345;52.334;10.392;2023-01-04T15:29:07;0.70;;;0.70;;
61477;SDS011;47345;52.334;10.392;2023-01-04T15:31:37;0.90;;;0.90;;
61477;SDS011;47345;52.334;10.392;2023-01-04T15:34:10;1.00;;;1.00;;
61477;SDS011;47345;52.334;10.392;2023-01-04T15:36:43;1.30;;;1.20;;
61477;SDS011;47345;52.334;10.392;2023-01-04T15:39:14;1.10;;;1.10;;
61477;SDS011;47345;52.334;10.392;2023-01-04T15:41:44;1.00;;;1.00;;
61477;SDS011;47345;52.334;10.392;2023-01-04T15:44:33;1.00;;;1.00;;
61477;SDS011;47345;52.334;10.392;2023-01-04T15:47:03;1.00;;;1.00;;
61477;SDS011;47345;52.334;10.392;2023-01-04T15:49:34;1.40;;;1.30;;
61477;SDS011;47345;52.334;10.392;2023-01-04T15:52:05;1.10;;;1.00;;
61477;SDS011;47345;52.334;10.392;2023-01-04T15:54:36;1.60;;;1.50;;
61477;SDS011;47345;52.334;10.392;2023-01-04T15:57:06;1.50;;;1.20;;